1974 Severe Tropical Cyclone JESSIE (1974075S12121)


IBTrACS version v04r00. Visit IBTrACS website for data access.
Please direct all questions to the IBTrACS Q and A forum

Storm track - Intensity - Wind Radii - Intensity Data - Source Data - All data

Summary Information

Storm ID 1974075S12121
Start Mar 16 00Z
Max Intensity 80 kt (Mar 19 19Z), 964 mb (Mar 20 00Z)
End Mar 25 01Z
ATCF IDs ,SH291974
Track status Best track data.

Storm track plot

Map of storm track

Intensity plots

Map of storm track

Radial wind information

No radial wind information for this storm


Position and Intensity Table

BASIN ISO_TIME_________ NATURE LAT LON WMO WIND WMO PRES BOM WIND BOM PRES NEUMANN WIND NEUMANN PRES
degrees north degrees east kts mb kts mb kts mb
SI 1974-03-16 00:00:00 TS -11.80 121.40
SI 01:00:00 TS -11.90 121.40 30 998 30 998
SI 03:00:00 TS -11.97 121.46 30 998
SI 04:00:00 TS -12.00 121.48 30 998 30 998
SI 06:00:00 TS -12.10 121.51 30 997 35 997
SI 07:00:00 TS -12.16 121.53 30 997 30 997 35 996
SI 09:00:00 TS -12.24 121.57 30 996 37 996
SI 10:00:00 TS -12.28 121.59 30 996 30 996 38 995
SI 12:00:00 TS -12.30 121.64 30 995 40 995
SI 13:00:00 TS -12.30 121.67 30 995 30 995 40 994
SI 15:00:00 TS -12.29 121.75 30 995 40 994
SI 16:00:00 TS -12.28 121.79 30 995 30 995 40 994
SI 18:00:00 TS -12.26 121.86 33 994 40 994
SI 19:00:00 TS -12.25 121.91 35 994 35 994 40 994
SI 21:00:00 TS -12.24 122.00 35 994 40 994
SI 22:00:00 TS -12.24 122.04 35 994 35 994 40 994
SI 1974-03-17 00:00:00 TS -12.25 122.10 35 994 40 994
SI 01:00:00 TS -12.26 122.10 35 994 35 994 40 993
SI 03:00:00 TS -12.30 122.10 38 993 42 992
SI 04:00:00 TS -12.33 122.09 40 993 40 993 43 992
SI 06:00:00 TS -12.40 122.03 43 990 45 991
SI 07:00:00 TS -12.44 122.00 45 990 45 990 45 990
SI 09:00:00 TS -12.52 121.94 45 989 47 989
SI 10:00:00 TS -12.55 121.90 45 989 45 989 48 989
SI 12:00:00 TS -12.63 121.81 48 988 50 988
SI 13:00:00 TS -12.66 121.77 50 988 50 988 50 988
SI 15:00:00 TS -12.73 121.68 50 988 50 988
SI 16:00:00 TS -12.76 121.63 50 988 50 988 50 988
SI 18:00:00 TS -12.82 121.53 50 988 50 988
SI 19:00:00 TS -12.85 121.50 50 988 50 988 50 988
SI 21:00:00 TS -12.87 121.42 50 988 50 988
SI 22:00:00 TS -12.89 121.37 50 988 50 988 50 988
SI 1974-03-18 00:00:00 TS -12.93 121.22 50 988 50 988
SI 01:00:00 TS -12.95 121.12 50 988 50 988 50 987
SI 03:00:00 TS -13.00 120.88 50 988 50 987
SI 04:00:00 TS -13.03 120.75 50 988 50 988 50 987
SI 06:00:00 TS -13.08 120.48 50 987 50 987
SI 07:00:00 TS -13.10 120.33 50 987 50 987 50 986
SI 09:00:00 TS -13.15 120.03 50 986 52 986
SI 10:00:00 TS -13.18 119.87 50 986 50 986 53 985
SI 12:00:00 TS -13.23 119.59 50 985 55 985
SI 13:00:00 TS -13.26 119.48 50 985 50 985 55 984
SI 15:00:00 TS -13.30 119.30 53 983 55 984
SI 16:00:00 TS -13.33 119.22 55 983 55 983 55 983
SI 18:00:00 TS -13.38 119.03 55 982 55 983
SI 19:00:00 TS -13.41 118.93 55 982 55 982 55 982
SI 21:00:00 TS -13.46 118.71 55 981 57 982
SI 22:00:00 TS -13.49 118.59 55 981 55 981 58 981
SI 1974-03-19 00:00:00 TS -13.55 118.34 55 981 60 981
SI 01:00:00 TS -13.59 118.19 55 981 55 981 60 980
SI 03:00:00 TS -13.72 117.83 58 979 62 979
SI 04:00:00 TS -13.80 117.63 60 979 60 979 63 978
SI 06:00:00 TS -13.94 117.21 63 976 65 977
SI 07:00:00 TS -14.02 117.00 65 975 65 975 66 976
SI 09:00:00 TS -14.20 116.54 68 972 70 974
SI 10:00:00 TS -14.28 116.30 70 972 70 972 71 973
SI 12:00:00 TS -14.43 115.79 73 970 75 971
SI 13:00:00 TS -14.49 115.54 75 970 75 970 75 970
SI 15:00:00 TS -14.64 115.02 75 968 75 969
SI 16:00:00 TS -14.71 114.76 75 968 75 968 75 969
SI 18:00:00 TS -14.81 114.20 78 966 75 968
SI 19:00:00 TS -14.86 113.92 80 966 80 966 75 967
SI 21:00:00 TS -14.96 113.38 80 965 77 966
SI 22:00:00 TS -14.99 113.11 80 965 80 965 78 966
SI 1974-03-20 00:00:00 TS -15.04 112.55 80 964 80 965
SI 01:00:00 TS -15.05 112.30 80 964 80 964 80 965
SI 03:00:00 TS -15.05 111.84 80 964 80 965
SI 04:00:00 TS -15.04 111.62 80 965 80 965 80 965
SI 06:00:00 TS -15.03 111.20 80 966 80 966
SI 07:00:00 TS -15.01 110.98 80 967 80 967 79 966
SI 09:00:00 TS -14.95 110.53 80 966 77 967
SI 10:00:00 TS -14.92 110.30 80 966 80 966 76 967
SI 12:00:00 TS -14.85 109.85 76 968 75 969
SI 13:00:00 TS -14.83 109.63 75 970 75 970 75 969
SI 15:00:00 TS -14.80 109.21 71 971 75 970
SI 16:00:00 TS -14.79 109.00 70 972 70 972 75 970
SI 18:00:00 TS -14.76 108.55 70 971 75 971
SI 19:00:00 TS -14.76 108.32 70 971 70 971 74 971
SI 21:00:00 TS -14.76 107.85 70 971 72 971
SI 22:00:00 TS -14.77 107.62 70 972 70 972 71 971
SI 1974-03-21 00:00:00 TS -14.80 107.15 70 972 70 972
SI 01:00:00 TS -14.82 106.94 70 973 70 973 70 972
SI 03:00:00 TS -14.87 106.54 70 973 70 972
SI 04:00:00 TS -14.91 106.35 70 973 70 973 70 972
SI 06:00:00 TS -15.00 105.98 70 972 70 973
SI 07:00:00 TS -15.05 105.80 70 972 70 972 70 973
SI 09:00:00 TS -15.17 105.51 70 972 70 973
SI 10:00:00 TS -15.24 105.46 70 972 70 972 70 973
SI 12:00:00 TS -15.36 105.32 70 972 70 973
SI 13:00:00 TS -15.42 105.63 70 973 70 973
SI 15:00:00 TS -15.48 105.34 70 973
SI 16:00:00 TS -15.52 105.20 70 973 70 973
SI 18:00:00 TS -15.59 104.91 70 972
SI 19:00:00 TS -15.61 104.79 70 972 70 972
SI 21:00:00 TS -15.63 104.58 70 972
SI 22:00:00 TS -15.65 104.48 70 972 70 972
SI 1974-03-22 00:00:00 TS -15.79 104.23 70 972
SI 01:00:00 TS -15.88 104.07 70 973 70 973
SI 03:00:00 TS -16.06 103.70 70 973
SI 04:00:00 TS -16.15 103.50 70 974 70 974
SI 06:00:00 TS -16.32 103.10 66 974
SI 07:00:00 TS -16.41 102.89 65 975 65 975
SI 09:00:00 TS -16.62 102.48 65 977
SI 10:00:00 TS -16.74 102.26 65 978 65 978
SI 12:00:00 TS -16.98 101.82 61 981
SI 13:00:00 TS -17.09 101.61 60 983 60 983
SI 15:00:00 TS -17.32 101.22 56 985
SI 16:00:00 TS -17.41 101.04 55 986 55 986
SI 18:00:00 TS -17.48 100.69 55 985
SI 19:00:00 TS -17.57 100.49 55 985 55 985
SI 21:00:00 TS -17.95 100.03 55 985
SI 22:00:00 TS -18.15 99.78 55 986 55 986
SI 1974-03-23 00:00:00 TS -18.41 99.27 51 987
SI 01:00:00 TS -18.51 99.05 50 988 50 988
SI 03:00:00 TS -18.76 98.72 50 988
SI 04:00:00 TS -18.88 98.57 50 989 50 989
SI 06:00:00 TS -19.10 98.20 50 989
SI 07:00:00 TS -19.21 98.01 50 989 50 989
SI 09:00:00 TS -19.48 97.67 50 990
SI 10:00:00 TS -19.61 97.51 50 991 50 991
SI 12:00:00 TS -19.88 97.18 43 992
SI 13:00:00 TS -20.01 97.02 40 993 40 993
SI 15:00:00 TS -20.27 96.73 40 993
SI 16:00:00 TS -20.41 96.59 40 994 40 994
SI 18:00:00 TS -20.71 96.32 40 993
SI 19:00:00 TS -20.88 96.18 40 993 40 993
SI 21:00:00 TS -21.21 95.86 40 993
SI 22:00:00 TS -21.37 95.72 40 993 40 993
SI 1974-03-24 00:00:00 TS -21.71 95.49 40 993
SI 01:00:00 TS -21.89 95.40 40 994 40 994
SI 03:00:00 TS -22.26 95.24 40 994
SI 04:00:00 TS -22.46 95.17 40 995 40 995
SI 06:00:00 TS -22.82 95.00 40 994
SI 07:00:00 TS -23.00 94.91 40 994 40 994
SI 09:00:00 TS -23.40 94.76 36 995
SI 10:00:00 TS -23.62 94.70 35 996 35 996
SI 12:00:00 TS -24.12 94.60 31 998
SI 13:00:00 TS -24.37 94.59 30 999 30 999
SI 15:00:00 TS -24.85 94.66 30 1001
SI 16:00:00 TS -25.09 94.69 30 1002 30 1002
SI 18:00:00 TS -25.58 94.60 26 1001
SI 19:00:00 TS -25.83 94.55 25 1001 25 1001
SI 21:00:00 TS -26.35 94.53 25 1001
SI 22:00:00 TS -26.63 94.54 25 1002 25 1002
SI 1974-03-25 00:00:00 TS -27.20 94.58 25 1002
SI 01:00:00 NR -27.50 94.60 25 1003 25 1003

Source Information

Agency Information
USA bsh291974.txt
TOKYO
CMA
HKO
NEWDELHI
REUNION
BOM IDCKMSTM0S.csv:Line=8871:JESSIE
NADI
WELLINGTON
DS824 s_hem.dat:1257:29S
TD9636 cons_worldwide_trop_cyclone_18710101-19891231-006:Line=9631
TD9635
NEUMANN tracks.sh:Storm=406:JESSIE:BSH2974:BM441
MLC

All available IBTrACS Data

SEASON BASIN SUBBASIN ISO_TIME_________ NATURE LAT LON WMO WIND WMO PRES WMO AGENCY DIST2LAND LANDFALL IFLAG USA AGENCY USA ATCF_ID USA LAT USA LON USA SSHS BOM LAT BOM LON BOM TYPE BOM WIND BOM PRES BOM TNUM BOM CI BOM PRES_METHOD DS824 LAT DS824 LON DS824 STAGE TD9636 LAT TD9636 LON TD9636 STAGE NEUMANN LAT NEUMANN LON NEUMANN CLASS NEUMANN WIND NEUMANN PRES STORM SPEED STORM DIR
Year degrees north degrees east kts mb km km degrees north degrees east 1 degrees north degrees east kts mb 1 1 degrees north degrees east degrees north degrees east degrees north degrees east kts mb kts degrees
1974 SI WA 1974-03-16 00:00:00 TS -11.80 121.40 194 194 O________OO___ jtwc_sh SH291974 -11.80 121.40 -1 -11.80 121.40 TC -11.80 121.40 4 6 0
1974 SI WA 01:00:00 TS -11.90 121.40 30 998 bom 204 204 P_____O__PP___ SH291974 -11.82 121.44 -1 -12.40 121.20 20 30 998 2.00 2.00 -11.82 121.44 TC -11.82 121.42 4 4 160
1974 SI WA 03:00:00 TS -11.97 121.46 219 219 P_____P__PP___ SH291974 -11.85 121.51 -1 -12.48 121.27 20 30 998 -11.85 121.51 TC -11.86 121.47 4 3 140
1974 SI WA 04:00:00 TS -12.00 121.48 30 998 bom 219 219 P_____O__PP___ SH291974 -11.86 121.54 -1 -12.50 121.30 20 30 998 2.00 -11.86 121.54 TC -11.88 121.50 4 3 158
1974 SI WA 06:00:00 TS -12.10 121.51 229 229 O_____P__OP_O_ jtwc_sh SH291974 -11.90 121.60 -1 -12.50 121.37 20 30 997 -11.90 121.60 TC -11.92 121.54 4 -12.50 121.40 TC 35 997 3 168
1974 SI WA 07:00:00 TS -12.16 121.53 30 997 bom 239 239 P_____O__PP_P_ SH291974 -11.92 121.62 -1 -12.50 121.40 20 30 997 2.00 -11.92 121.62 TC -11.93 121.57 4 -12.53 121.43 TC 35 996 3 160
1974 SI WA 09:00:00 TS -12.24 121.57 244 244 P_____P__PP_P_ SH291974 -11.96 121.66 -1 -12.57 121.47 20 30 996 -11.96 121.66 TC -11.97 121.62 4 -12.57 121.49 TC 37 996 3 155
1974 SI WA 10:00:00 TS -12.28 121.59 30 996 bom 254 254 P_____O__PP_P_ SH291974 -11.97 121.67 -1 -12.60 121.50 20 30 996 2.50 -11.97 121.67 TC -11.98 121.65 4 -12.59 121.53 TC 38 995 2 131
1974 SI WA 12:00:00 TS -12.30 121.64 254 254 O_____P__OO_O_ jtwc_sh SH291974 -12.00 121.70 -1 -12.61 121.56 20 30 995 -12.00 121.70 TC -12.00 121.70 4 -12.60 121.60 TC 40 995 2 103
1974 SI WA 13:00:00 TS -12.30 121.67 30 995 bom 259 259 P_____O__PP_P_ SH291974 -12.00 121.72 -1 -12.60 121.60 20 30 995 2.50 -12.00 121.72 TC -12.01 121.73 4 -12.59 121.64 TC 40 994 2 86
1974 SI WA 15:00:00 TS -12.29 121.75 259 259 P_____P__PP_P_ SH291974 -12.00 121.75 -1 -12.61 121.73 20 30 995 -12.00 121.75 TC -12.02 121.78 4 -12.56 121.74 TC 40 994 2 82
1974 SI WA 16:00:00 TS -12.28 121.79 30 995 bom 264 264 P_____O__PP_P_ SH291974 -12.00 121.77 -1 -12.60 121.80 20 30 995 2.50 -12.00 121.77 TC -12.02 121.81 4 -12.54 121.79 TC 40 994 2 75
1974 SI WA 18:00:00 TS -12.26 121.86 269 269 O_____P__OP_O_ jtwc_sh SH291974 -12.00 121.80 -1 -12.54 121.93 20 33 994 -12.00 121.80 TC -12.03 121.85 4 -12.50 121.90 TC 40 994 3 75
1974 SI WA 19:00:00 TS -12.25 121.91 35 994 bom 269 259 P_____O__PP_P_ SH291974 -12.01 121.82 -1 -12.50 122.00 30 35 994 2.50 -12.01 121.82 TC -12.04 121.87 4 -12.48 121.97 TC 40 994 3 79
1974 SI WA 21:00:00 TS -12.24 122.00 259 259 P_____P__PP_P_ SH291974 -12.03 121.87 -1 -12.43 122.14 30 35 994 -12.03 121.87 TC -12.06 121.90 4 -12.44 122.12 TC 40 994 3 82
1974 SI WA 22:00:00 TS -12.24 122.04 35 994 bom 259 252 P_____O__PP_P_ SH291974 -12.05 121.89 -1 -12.40 122.20 30 35 994 2.50 -12.05 121.89 TC -12.07 121.90 4 -12.42 122.18 TC 40 994 2 98
1974 SI WA 1974-03-17 00:00:00 TS -12.25 122.10 252 252 O_____P__OO_O_ jtwc_sh SH291974 -12.10 121.90 -1 -12.39 122.27 30 35 994 -12.10 121.90 TC -12.10 121.90 4 -12.40 122.30 TC 40 994 1 115
1974 SI WA 01:00:00 TS -12.26 122.10 35 994 bom 261 261 P_____O__PP_P_ SH291974 -12.13 121.88 -1 -12.40 122.30 30 35 994 2.50 2.50 -12.13 121.88 TC -12.12 121.89 4 -12.40 122.34 TC 40 993 1 155
1974 SI WA 03:00:00 TS -12.30 122.10 261 261 P_____P__PP_P_ SH291974 -12.19 121.82 -1 -12.38 122.38 30 38 993 -12.19 121.82 TC -12.18 121.84 4 -12.43 122.39 TC 42 992 1 204
1974 SI WA 04:00:00 TS -12.33 122.09 40 993 bom 261 261 P_____O__PP_P_ SH291974 -12.23 121.78 -1 -12.40 122.40 30 40 993 2.50 -12.23 121.78 TC -12.22 121.81 4 -12.45 122.41 TC 43 992 2 215
1974 SI WA 06:00:00 TS -12.40 122.03 277 277 O_____P__OP_O_ jtwc_sh SH291974 -12.30 121.70 -1 -12.53 122.34 30 43 990 -12.30 121.70 TC -12.29 121.74 4 -12.50 122.40 TC 45 991 3 218
1974 SI WA 07:00:00 TS -12.44 122.00 45 990 bom 277 277 P_____O__PP_P_ SH291974 -12.33 121.66 -1 -12.60 122.30 30 45 990 3.00 -12.33 121.66 TC -12.32 121.70 4 -12.53 122.39 TC 45 990 3 217
1974 SI WA 09:00:00 TS -12.52 121.94 288 288 P_____P__PP_P_ SH291974 -12.40 121.59 -1 -12.67 122.24 30 45 989 -12.40 121.59 TC -12.40 121.62 4 -12.59 122.34 TC 47 989 3 221
1974 SI WA 10:00:00 TS -12.55 121.90 45 989 bom 298 294 P_____O__PP_P_ SH291974 -12.43 121.56 -1 -12.70 122.20 30 45 989 3.00 -12.43 121.56 TC -12.43 121.58 4 -12.63 122.30 TC 48 989 3 227
1974 SI WA 12:00:00 TS -12.63 121.81 294 294 O_____P__OO_O_ jtwc_sh SH291974 -12.50 121.50 -1 -12.77 122.08 30 48 988 -12.50 121.50 TC -12.50 121.50 4 -12.70 122.20 TC 50 988 3 229
1974 SI WA 13:00:00 TS -12.66 121.77 50 988 bom 303 298 P_____O__PP_P_ SH291974 -12.54 121.48 -1 -12.80 122.00 30 50 988 3.00 -12.54 121.48 TC -12.53 121.49 4 -12.74 122.15 TC 50 988 3 232
1974 SI WA 15:00:00 TS -12.73 121.68 298 298 P_____P__PP_P_ SH291974 -12.61 121.45 -1 -12.87 121.80 30 50 988 -12.61 121.45 TC -12.59 121.48 4 -12.81 122.02 TC 50 988 3 233
1974 SI WA 16:00:00 TS -12.76 121.63 50 988 bom 304 300 P_____O__PP_P_ SH291974 -12.64 121.44 -1 -12.90 121.70 30 50 988 3.50 -12.64 121.44 TC -12.61 121.47 4 -12.84 121.95 TC 50 988 3 236
1974 SI WA 18:00:00 TS -12.82 121.53 300 300 O_____P__OP_O_ jtwc_sh SH291974 -12.70 121.40 -1 -12.97 121.55 30 50 988 -12.70 121.40 TC -12.66 121.45 4 -12.90 121.80 TC 50 988 3 238
1974 SI WA 19:00:00 TS -12.85 121.50 50 988 bom 300 300 P_____O__PP_P_ SH291974 -12.72 121.39 -1 -13.00 121.50 30 50 988 3.50 -12.72 121.39 TC -12.69 121.44 4 -12.92 121.72 TC 50 988 3 246
1974 SI WA 21:00:00 TS -12.87 121.42 307 307 P_____P__PP_P_ SH291974 -12.76 121.35 -1 -13.00 121.44 30 50 988 -12.76 121.35 TC -12.74 121.38 4 -12.95 121.56 TC 50 988 3 251
1974 SI WA 22:00:00 TS -12.89 121.37 50 988 bom 307 301 P_____O__PP_P_ SH291974 -12.77 121.32 -1 -13.00 121.40 30 50 988 3.50 -12.77 121.32 TC -12.76 121.33 4 -12.96 121.48 TC 50 988 4 255
1974 SI WA 1974-03-18 00:00:00 TS -12.93 121.22 301 298 O_____P__OO_O_ jtwc_sh SH291974 -12.80 121.20 -1 -13.06 121.22 30 50 988 -12.80 121.20 TC -12.80 121.20 4 -13.00 121.30 TC 50 988 5 255
1974 SI WA 01:00:00 TS -12.95 121.12 50 988 bom 309 305 P_____O__PP_P_ SH291974 -12.82 121.11 -1 -13.10 121.10 30 50 988 3.50 3.50 -12.82 121.11 TC -12.82 121.09 4 -13.03 121.21 TC 50 987 7 257
1974 SI WA 03:00:00 TS -13.00 120.88 305 304 P_____P__PP_P_ SH291974 -12.85 120.86 -1 -13.17 120.83 30 50 988 -12.85 120.86 TC -12.85 120.83 4 -13.09 121.02 TC 50 987 7 258
1974 SI WA 04:00:00 TS -13.03 120.75 50 988 bom 303 302 P_____O__PP_P_ SH291974 -12.87 120.72 -1 -13.20 120.70 30 50 988 3.50 -12.87 120.72 TC -12.86 120.69 4 -13.13 120.92 TC 50 987 8 259
1974 SI WA 06:00:00 TS -13.08 120.48 313 313 O_____P__OP_O_ jtwc_sh SH291974 -12.90 120.40 -1 -13.27 120.50 30 50 987 -12.90 120.40 TC -12.89 120.37 4 -13.20 120.70 TC 50 987 8 259
1974 SI WA 07:00:00 TS -13.10 120.33 50 987 bom 314 314 P_____O__PP_P_ SH291974 -12.91 120.23 -1 -13.30 120.40 30 50 987 3.50 -12.91 120.23 TC -12.91 120.20 4 -13.23 120.57 TC 50 986 9 261
1974 SI WA 09:00:00 TS -13.15 120.03 318 318 P_____P__PP_P_ SH291974 -12.94 119.88 -1 -13.37 120.14 30 50 986 -12.94 119.88 TC -12.94 119.87 4 -13.30 120.30 TC 52 986 9 261
1974 SI WA 10:00:00 TS -13.18 119.87 50 986 bom 331 331 P_____O__PP_P_ SH291974 -12.96 119.70 -1 -13.40 120.00 30 50 986 3.50 -12.96 119.70 TC -12.96 119.71 4 -13.33 120.16 TC 53 985 9 260
1974 SI WA 12:00:00 TS -13.23 119.59 339 339 O_____P__OO_O_ jtwc_sh SH291974 -13.00 119.40 -1 -13.47 119.72 30 50 985 -13.00 119.40 TC -13.00 119.40 4 -13.40 119.90 TC 55 985 8 258
1974 SI WA 13:00:00 TS -13.26 119.48 50 985 bom 353 353 P_____O__PP_P_ SH291974 -13.03 119.29 -1 -13.50 119.60 30 50 985 3.50 -13.03 119.29 TC -13.02 119.30 4 -13.44 119.79 TC 55 984 6 255
1974 SI WA 15:00:00 TS -13.30 119.30 360 360 P_____P__PP_P_ SH291974 -13.09 119.13 -1 -13.50 119.47 30 53 983 -13.09 119.13 TC -13.06 119.11 4 -13.51 119.59 TC 55 984 5 254
1974 SI WA 16:00:00 TS -13.33 119.22 55 983 bom 363 363 P_____O__PP_P_ SH291974 -13.13 119.06 -1 -13.50 119.40 30 55 983 4.00 -13.13 119.06 TC -13.09 119.03 4 -13.54 119.50 TC 55 983 6 252
1974 SI WA 18:00:00 TS -13.38 119.03 381 381 O_____P__OP_O_ jtwc_sh SH291974 -13.20 118.90 -1 -13.56 119.14 30 55 982 -13.20 118.90 TC -13.15 118.86 4 -13.60 119.30 TC 55 983 6 253
1974 SI WA 19:00:00 TS -13.41 118.93 55 982 bom 385 385 P_____O__PP_P_ SH291974 -13.23 118.81 -1 -13.60 119.00 30 55 982 4.00 -13.23 118.81 TC -13.18 118.77 4 -13.62 119.20 TC 55 982 6 256
1974 SI WA 21:00:00 TS -13.46 118.71 404 404 P_____P__PP_P_ SH291974 -13.28 118.60 -1 -13.67 118.73 30 55 981 -13.28 118.60 TC -13.25 118.58 4 -13.64 118.98 TC 57 982 7 256
1974 SI WA 22:00:00 TS -13.49 118.59 55 981 bom 408 408 P_____O__PP_P_ SH291974 -13.32 118.48 -1 -13.70 118.60 30 55 981 4.00 -13.32 118.48 TC -13.30 118.46 4 -13.66 118.86 TC 58 981 8 257
1974 SI WA 1974-03-19 00:00:00 TS -13.55 118.34 423 423 O_____P__OO_O_ jtwc_sh SH291974 -13.40 118.20 -1 -13.68 118.42 30 55 981 -13.40 118.20 TC -13.40 118.20 4 -13.70 118.60 TC 60 981 8 256
1974 SI WA 01:00:00 TS -13.59 118.19 55 981 bom 438 438 P_____O__PP_P_ SH291974 -13.45 118.03 -1 -13.70 118.30 30 55 981 4.00 4.00 -13.45 118.03 TC -13.46 118.04 4 -13.73 118.46 TC 60 980 11 251
1974 SI WA 03:00:00 TS -13.72 117.83 469 469 P_____P__PP_P_ SH291974 -13.58 117.65 -1 -13.89 117.92 30 58 979 -13.58 117.65 TC -13.60 117.68 4 -13.82 118.15 TC 62 979 12 249
1974 SI WA 04:00:00 TS -13.80 117.63 60 979 bom 487 487 P_____O__PP_P_ SH291974 -13.65 117.44 -1 -14.00 117.70 30 60 979 4.00 -13.65 117.44 TC -13.68 117.48 4 -13.87 117.98 TC 63 978 13 250
1974 SI WA 06:00:00 TS -13.94 117.21 513 513 O_____P__OP_O_ jtwc_sh SH291974 -13.80 117.00 -1 -14.13 117.31 30 63 976 -13.80 117.00 TC -13.83 117.05 4 -14.00 117.60 TC 65 977 13 250
1974 SI WA 07:00:00 TS -14.02 117.00 65 975 bom 533 533 P_____O__PP_P_ SH291974 -13.88 116.78 -1 -14.20 117.10 40 65 975 4.50 -13.88 116.78 TC -13.92 116.82 4 -14.08 117.39 TC 66 976 14 249
1974 SI WA 09:00:00 TS -14.20 116.54 573 573 P_____P__PP_P_ SH291974 -14.05 116.33 -1 -14.41 116.65 40 68 972 -14.05 116.33 TC -14.08 116.35 4 -14.25 116.95 TC 70 974 15 249
1974 SI WA 10:00:00 TS -14.28 116.30 70 972 bom 587 587 P_____O__PP_P_ SH291974 -14.14 116.09 -1 -14.50 116.40 40 70 972 4.50 -14.14 116.09 TC -14.15 116.10 4 -14.34 116.70 TC 71 973 15 252
1974 SI WA 12:00:00 TS -14.43 115.79 607 607 O_____P__OO_O_ jtwc_sh SH291974 -14.30 115.60 -1 -14.56 115.86 40 73 970 -14.30 115.60 TC -14.30 115.60 4 -14.50 116.20 TC 75 971 15 254
1974 SI WA 13:00:00 TS -14.49 115.54 75 970 bom 623 623 P_____O__PP_P_ SH291974 -14.38 115.34 -1 -14.60 115.60 40 75 970 4.50 -14.38 115.34 TC -14.37 115.35 4 -14.56 115.95 TC 75 970 16 254
1974 SI WA 15:00:00 TS -14.64 115.02 645 645 P_____P__PP_P_ SH291974 -14.52 114.81 -1 -14.80 115.14 40 75 968 -14.52 114.81 TC -14.51 114.82 4 -14.66 115.42 TC 75 969 16 254
1974 SI WA 16:00:00 TS -14.71 114.76 75 968 bom 661 660 P_____O__PP_P_ SH291974 -14.59 114.54 -1 -14.90 114.90 40 75 968 4.50 -14.59 114.54 TC -14.57 114.55 4 -14.71 115.15 TC 75 969 16 258
1974 SI WA 18:00:00 TS -14.81 114.20 673 673 O_____P__OP_O_ jtwc_sh SH291974 -14.70 114.00 -1 -14.97 114.29 40 78 966 -14.70 114.00 TC -14.69 114.00 4 -14.80 114.60 TC 75 968 17 259
1974 SI WA 19:00:00 TS -14.86 113.92 80 966 bom 687 687 P_____O__PP_P_ SH291974 -14.75 113.73 -1 -15.00 114.00 40 80 966 5.00 -14.75 113.73 TC -14.74 113.73 4 -14.86 114.31 TC 75 967 16 260
1974 SI WA 21:00:00 TS -14.96 113.38 706 706 P_____P__PP_P_ SH291974 -14.84 113.18 -1 -15.14 113.55 40 80 965 -14.84 113.18 TC -14.83 113.18 4 -14.97 113.74 TC 77 966 16 260
1974 SI WA 22:00:00 TS -14.99 113.11 80 965 bom 713 713 P_____O__PP_P_ SH291974 -14.87 112.91 -1 -15.20 113.30 40 80 965 5.00 -14.87 112.91 TC -14.86 112.92 4 -15.02 113.45 TC 78 966 16 264
1974 SI WA 1974-03-20 00:00:00 TS -15.04 112.55 727 727 O_____P__OO_O_ jtwc_sh SH291974 -14.90 112.40 -1 -15.21 112.63 40 80 964 -14.90 112.40 TC -14.90 112.40 4 -15.10 112.90 TC 80 965 16 266
1974 SI WA 01:00:00 TS -15.05 112.30 80 964 bom 735 735 P_____O__PP_P_ SH291974 -14.90 112.17 -1 -15.20 112.30 40 80 964 5.00 5.00 4 -14.90 112.17 TC -14.90 112.17 4 -15.13 112.65 TC 80 965 14 269
1974 SI WA 03:00:00 TS -15.05 111.84 739 739 P_____P__PP_P_ SH291974 -14.88 111.73 -1 -15.19 111.81 40 80 964 -14.88 111.73 TC -14.88 111.72 4 -15.18 112.18 TC 80 965 13 270
1974 SI WA 04:00:00 TS -15.04 111.62 80 965 bom 739 739 P_____O__PP_P_ SH291974 -14.86 111.52 -1 -15.20 111.60 40 80 965 5.00 -14.86 111.52 TC -14.86 111.50 4 -15.19 111.95 TC 80 965 12 272
1974 SI WA 06:00:00 TS -15.03 111.20 741 741 O_____P__OP_O_ jtwc_sh SH291974 -14.80 111.10 -1 -15.28 111.20 40 80 966 -14.80 111.10 TC -14.80 111.08 4 -15.20 111.50 TC 80 966 13 273
1974 SI WA 07:00:00 TS -15.01 110.98 80 967 bom 743 743 P_____O__PP_P_ SH291974 -14.77 110.89 -1 -15.30 111.00 40 80 967 5.00 -14.77 110.89 TC -14.77 110.87 4 -15.19 111.26 TC 79 966 13 277
1974 SI WA 09:00:00 TS -14.95 110.53 750 739 P_____P__PP_P_ SH291974 -14.70 110.46 -1 -15.24 110.54 40 80 966 -14.70 110.46 TC -14.70 110.45 4 -15.16 110.78 TC 77 967 13 278
1974 SI WA 10:00:00 TS -14.92 110.30 80 966 bom 743 743 P_____O__PP_P_ SH291974 -14.66 110.24 -1 -15.20 110.30 40 80 966 5.00 -14.66 110.24 TC -14.66 110.23 4 -15.14 110.55 TC 76 967 13 279
1974 SI WA 12:00:00 TS -14.85 109.85 752 743 O_____P__OO_O_ jtwc_sh SH291974 -14.60 109.80 -1 -15.13 109.82 40 76 968 -14.60 109.80 TC -14.60 109.80 4 -15.10 110.10 TC 75 969 13 277
1974 SI WA 13:00:00 TS -14.83 109.63 75 970 bom 748 748 P_____O__PP_P_ SH291974 -14.57 109.58 -1 -15.10 109.60 40 75 970 4.50 -14.57 109.58 TC -14.57 109.57 4 -15.09 109.89 TC 75 969 12 275
1974 SI WA 15:00:00 TS -14.80 109.21 757 757 P_____P__PP_P_ SH291974 -14.53 109.12 -1 -15.10 109.27 40 71 971 -14.53 109.12 TC -14.52 109.10 4 -15.09 109.49 TC 75 970 12 274
1974 SI WA 16:00:00 TS -14.79 109.00 70 972 bom 762 762 P_____O__PP_P_ SH291974 -14.52 108.88 -1 -15.10 109.10 40 70 972 4.50 -14.52 108.88 TC -14.50 108.86 4 -15.09 109.30 TC 75 970 13 273
1974 SI WA 18:00:00 TS -14.76 108.55 773 773 O_____P__OP_O_ jtwc_sh SH291974 -14.50 108.40 -1 -15.02 108.64 40 70 971 -14.50 108.40 TC -14.47 108.38 4 -15.10 108.90 TC 75 971 13 273
1974 SI WA 19:00:00 TS -14.76 108.32 70 971 bom 784 784 P_____O__PP_P_ SH291974 -14.49 108.16 -1 -15.00 108.40 40 70 971 4.50 -14.49 108.16 TC -14.46 108.13 4 -15.10 108.68 TC 74 971 14 270
1974 SI WA 21:00:00 TS -14.76 107.85 785 785 P_____P__PP_P_ SH291974 -14.47 107.66 -1 -15.06 108.00 40 70 971 -14.47 107.66 TC -14.45 107.64 4 -15.09 108.23 TC 72 971 14 268
1974 SI WA 22:00:00 TS -14.77 107.62 70 972 bom 788 788 P_____O__PP_P_ SH291974 -14.47 107.41 -1 -15.10 107.80 40 70 972 4.50 -14.47 107.41 TC -14.46 107.40 4 -15.09 108.01 TC 71 971 14 267
1974 SI WA 1974-03-21 00:00:00 TS -14.80 107.15 794 794 O_____P__OO_O_ jtwc_sh SH291974 -14.50 106.90 -1 -15.11 107.32 40 70 972 -14.50 106.90 TC -14.50 106.90 4 -15.10 107.60 TC 70 972 13 266
1974 SI WA 01:00:00 TS -14.82 106.94 70 973 bom 800 800 P_____O__PP_P_ SH291974 -14.53 106.65 -1 -15.10 107.10 40 70 973 4.50 4.50 -14.53 106.65 TC -14.53 106.65 4 -15.11 107.42 TC 70 972 12 263
1974 SI WA 03:00:00 TS -14.87 106.54 818 818 P_____P__PP_P_ SH291974 -14.61 106.15 -1 -15.09 106.81 40 70 973 -14.61 106.15 TC -14.63 106.15 4 -15.14 107.11 TC 70 972 11 261
1974 SI WA 04:00:00 TS -14.91 106.35 70 973 bom 820 820 P_____O__PP_P_ SH291974 -14.67 105.90 -1 -15.10 106.70 40 70 973 4.50 -14.67 105.90 TC -14.68 105.90 4 -15.16 106.97 TC 70 972 11 257
1974 SI WA 06:00:00 TS -15.00 105.98 840 840 O_____P__OP_O_ jtwc_sh SH291974 -14.80 105.40 -1 -15.16 106.49 40 70 972 -14.80 105.40 TC -14.82 105.40 4 -15.20 106.70 TC 70 973 11 255
1974 SI WA 07:00:00 TS -15.05 105.80 70 972 bom 846 846 P_____O__PP_P_ SH291974 -14.88 105.15 -1 -15.20 106.40 40 70 972 4.50 -14.88 105.15 TC -14.89 105.15 4 -15.22 106.57 TC 70 973 10 249
1974 SI WA 09:00:00 TS -15.17 105.51 876 876 P_____P__PP_P_ SH291974 -15.04 104.65 -1 -15.27 106.22 40 70 972 -15.04 104.65 TC -15.05 104.65 4 -15.25 106.30 TC 70 973 8 240
1974 SI WA 10:00:00 TS -15.24 105.46 70 972 bom 876 876 P_____O__PP_P_ SH291974 -15.12 104.40 -1 -15.30 106.10 40 70 972 4.50 -15.12 104.40 TC -15.13 104.40 4 -15.27 106.17 TC 70 973 5 224
1974 SI WA 12:00:00 TS -15.36 105.32 903 895 O_____P__OO_O_ jtwc_sh SH291974 -15.30 103.90 -1 -15.37 105.77 40 70 972 -15.30 103.90 TC -15.30 103.90 4 -15.30 105.90 TC 70 973 5 138
1974 SI WA 13:00:00 TS -15.42 105.63 70 973 bom 895 895 ______O_______ SH291974 -1 -15.40 105.60 40 70 973 4.50 TC 4 TC 3 0
1974 SI WA 15:00:00 TS -15.48 105.34 914 914 ______P_______ SH291974 -1 -15.47 105.33 40 70 973 TC 4 TC 9 256
1974 SI WA 16:00:00 TS -15.52 105.20 70 973 bom 916 916 ______O_______ SH291974 -1 -15.50 105.20 40 70 973 4.50 TC 4 TC 8 256
1974 SI WA 18:00:00 TS -15.59 104.91 932 932 ______P_______ -1 -15.57 104.93 40 70 972 4 8 256
1974 SI WA 19:00:00 TS -15.61 104.79 70 972 bom 934 934 ______O_______ -1 -15.60 104.80 40 70 972 4.50 4 6 262
1974 SI WA 21:00:00 TS -15.63 104.58 939 939 ______P_______ -1 -15.58 104.60 40 70 972 4 6 262
1974 SI WA 22:00:00 TS -15.65 104.48 70 972 bom 952 952 ______O_______ -1 -15.60 104.50 40 70 972 4.50 4 8 245
1974 SI WA 1974-03-22 00:00:00 TS -15.79 104.23 970 970 ______P_______ -1 -15.78 104.25 40 70 972 9 240
1974 SI WA 01:00:00 TS -15.88 104.07 70 973 bom 984 984 ______O_______ -1 -15.90 104.10 40 70 973 4.50 11 242
1974 SI WA 03:00:00 TS -16.06 103.70 1017 1017 ______P_______ -1 -16.11 103.71 40 70 973 12 244
1974 SI WA 04:00:00 TS -16.15 103.50 70 974 bom 1034 1034 ______O_______ -1 -16.20 103.50 40 70 974 4.50 4.50 13 246
1974 SI WA 06:00:00 TS -16.32 103.10 1059 1059 ______P_______ -1 -16.33 103.10 40 66 974 13 246
1974 SI WA 07:00:00 TS -16.41 102.89 65 975 bom 1077 1077 ______O_______ -1 -16.40 102.90 40 65 975 4.50 13 243
1974 SI WA 09:00:00 TS -16.62 102.48 1114 1114 ______P_______ -1 -16.59 102.51 40 65 977 14 241
1974 SI WA 10:00:00 TS -16.74 102.26 65 978 bom 1132 1132 ______O_______ -1 -16.70 102.30 40 65 978 4.50 15 240
1974 SI WA 12:00:00 TS -16.98 101.82 1185 1185 ______P_______ -1 -16.96 101.83 40 61 981 14 240
1974 SI WA 13:00:00 TS -17.09 101.61 60 983 bom 1204 1204 ______O_______ -1 -17.10 101.60 30 60 983 4.00 13 239
1974 SI WA 15:00:00 TS -17.32 101.22 1243 1243 ______P_______ -1 -17.40 101.19 30 56 985 13 240
1974 SI WA 16:00:00 TS -17.41 101.04 55 986 bom 1263 1263 ______O_______ -1 -17.50 101.00 30 55 986 4.00 11 252
1974 SI WA 18:00:00 TS -17.48 100.69 1288 1288 ______P_______ -1 -17.47 100.68 30 55 985 11 253
1974 SI WA 19:00:00 TS -17.57 100.49 55 985 bom 1309 1309 ______O_______ -1 -17.50 100.50 30 55 985 4.00 16 234
1974 SI WA 21:00:00 TS -17.95 100.03 1364 1364 ______P_______ -1 -17.96 100.05 30 55 985 18 229
1974 SI WA 22:00:00 TS -18.15 99.78 55 986 bom 1394 1394 ______O_______ -1 -18.20 99.80 30 55 986 4.00 17 237
1974 SI WA 1974-03-23 00:00:00 TS -18.41 99.27 1447 1447 ______P_______ -1 -18.41 99.24 30 51 987 16 242
1974 SI WA 01:00:00 TS -18.51 99.05 50 988 bom 1472 1472 ______O_______ -1 -18.50 99.00 30 50 988 3.50 13 236
1974 SI WA 03:00:00 TS -18.76 98.72 1516 1516 ______P_______ -1 -18.77 98.73 30 50 988 12 230
1974 SI WA 04:00:00 TS -18.88 98.57 50 989 bom 1531 1531 ______O_______ -1 -18.90 98.60 30 50 989 3.50 3.50 12 236
1974 SI WA 06:00:00 TS -19.10 98.20 1571 1571 ______P_______ -1 -19.10 98.20 30 50 989 12 238
1974 SI WA 07:00:00 TS -19.21 98.01 50 989 bom 1591 1591 ______O_______ -1 -19.20 98.00 30 50 989 3.50 13 233
1974 SI WA 09:00:00 TS -19.48 97.67 1636 1636 ______P_______ -1 -19.46 97.66 30 50 990 12 230
1974 SI WA 10:00:00 TS -19.61 97.51 50 991 bom 1657 1657 ______O_______ -1 -19.60 97.50 30 50 991 3.50 12 229
1974 SI WA 12:00:00 TS -19.88 97.18 1702 1702 ______P_______ -1 -19.87 97.16 30 43 992 12 229
1974 SI WA 13:00:00 TS -20.01 97.02 40 993 bom 1722 1722 ______O_______ -1 -20.00 97.00 30 40 993 3.00 11 227
1974 SI WA 15:00:00 TS -20.27 96.73 1766 1766 ______P_______ -1 -20.26 96.73 30 40 993 11 226
1974 SI WA 16:00:00 TS -20.41 96.59 40 994 bom 1774 1774 ______O_______ -1 -20.40 96.60 30 40 994 3.00 12 221
1974 SI WA 18:00:00 TS -20.71 96.32 1799 1797 ______P_______ -1 -20.73 96.34 30 40 993 12 220
1974 SI WA 19:00:00 TS -20.88 96.18 40 993 bom 1805 1805 ______O_______ -1 -20.90 96.20 30 40 993 3.00 13 221
1974 SI WA 21:00:00 TS -21.21 95.86 1827 1827 ______P_______ -1 -21.23 95.86 30 40 993 13 221
1974 SI WA 22:00:00 TS -21.37 95.72 40 993 bom 1841 1838 ______O_______ -1 -21.40 95.70 30 40 993 3.00 12 214
1974 SI WA 1974-03-24 00:00:00 TS -21.71 95.49 1853 1851 ______P_______ -1 -21.73 95.48 30 40 993 12 210
1974 SI WA 01:00:00 TS -21.89 95.40 40 994 bom 1859 1856 ______O_______ -1 -21.90 95.40 30 40 994 3.00 12 202
1974 SI WA 03:00:00 TS -22.26 95.24 1870 1868 ______P_______ -1 -22.30 95.27 30 40 994 12 200
1974 SI WA 04:00:00 TS -22.46 95.17 40 995 bom 1866 1866 ______O_______ -1 -22.50 95.20 30 40 995 3.00 3.00 12 203
1974 SI WA 06:00:00 TS -22.82 95.00 1881 1879 ______P_______ -1 -22.83 95.00 30 40 994 12 204
1974 SI WA 07:00:00 TS -23.00 94.91 40 994 bom 1887 1886 ______O_______ -1 -23.00 94.90 30 40 994 3.00 13 201
1974 SI WA 09:00:00 TS -23.40 94.76 1889 1889 ______P_______ -1 -23.38 94.75 30 36 995 13 198
1974 SI WA 10:00:00 TS -23.62 94.70 35 996 bom 1894 1889 ______O_______ -1 -23.60 94.70 30 35 996 3.00 15 191
1974 SI WA 12:00:00 TS -24.12 94.60 1893 1889 ______P_______ -1 -24.13 94.60 30 31 998 15 187
1974 SI WA 13:00:00 TS -24.37 94.59 30 999 bom 1887 1870 ______O_______ -1 -24.40 94.60 20 30 999 2.50 15 175
1974 SI WA 15:00:00 TS -24.85 94.66 1870 1865 ______P_______ -1 -24.87 94.76 20 30 1001 15 173
1974 SI WA 16:00:00 TS -25.09 94.69 30 1002 bom 1865 1860 ______O_______ -1 -25.10 94.80 20 30 1002 2.50 15 184
1974 SI WA 18:00:00 TS -25.58 94.60 1868 1865 ______P_______ -1 -25.56 94.60 20 26 1001 15 190
1974 SI WA 19:00:00 TS -25.83 94.55 25 1001 bom 1865 1865 ______O_______ -1 -25.80 94.50 20 25 1001 2.00 16 184
1974 SI WA 21:00:00 TS -26.35 94.53 1869 1868 ______P_______ -1 -26.32 94.48 20 25 1001 16 0
1974 SI WA 22:00:00 TS -26.63 94.54 25 1002 bom 1868 1856 ______O_______ -1 -26.60 94.50 20 25 1002 2.00 17 177
1974 SI WA 1974-03-25 00:00:00 TS -27.20 94.58 1856 1855 ______P_______ -1 -27.19 94.56 20 25 1002 18 176
1974 SI WA 01:00:00 NR -27.50 94.60 25 1003 bom 1855 ______O_______ -1 -27.50 94.60 20 25 1003 2.00 2.00 18 0